Time;durP1;ratioP1;P1;durP2;ratioP2;P2;SDS_P1;SDS_P2;PMS_P1;PMS_P2;Temp;Humidity;BMP_temperature;BMP_pressure;BME280_temperature;BME280_humidity;BME280_pressure;Samples;Min_cycle;Max_cycle;Signal;HPM_P1;HPM_P2
2022/04/13 00:09:10;;;;;;;1.23;1.00;;;;;;;;;;20244326;29;20055;-82
2022/04/13 00:19:12;;;;;;;1.90;1.08;;;;;;;;;;20275895;29;20063;-82
2022/04/13 00:29:13;;;;;;;1.30;1.05;;;;;;;;;;20275111;29;20049;-82
2022/04/13 00:39:15;;;;;;;1.63;1.00;;;;;;;;;;20274660;29;20052;-83
2022/04/13 00:49:17;;;;;;;2.35;1.27;;;;;;;;;;20274160;29;20067;-83
2022/04/13 00:59:19;;;;;;;1.73;1.20;;;;;;;;;;20272750;29;20056;-82
2022/04/13 01:09:23;;;;;;;1.25;1.10;;;;;;;;;;20272728;29;20059;-82
2022/04/13 01:19:25;;;;;;;1.40;1.10;;;;;;;;;;20270733;29;20064;-83
2022/04/13 01:29:26;;;;;;;1.35;0.90;;;;;;;;;;20270777;29;20183;-83
2022/04/13 01:39:29;;;;;;;1.80;1.10;;;;;;;;;;20238108;29;20056;-83
2022/04/13 01:49:30;;;;;;;1.65;1.15;;;;;;;;;;20268930;29;20055;-83
2022/04/13 01:59:32;;;;;;;1.15;1.00;;;;;;;;;;20268040;29;20060;-83
2022/04/13 02:09:34;;;;;;;2.10;1.00;;;;;;;;;;20267788;29;20055;-82
2022/04/13 02:19:35;;;;;;;1.42;1.08;;;;;;;;;;20266844;29;20410;-82
2022/04/13 02:29:37;;;;;;;1.60;1.35;;;;;;;;;;20265691;29;20402;-82
2022/04/13 02:39:39;;;;;;;1.60;1.15;;;;;;;;;;20265812;29;20395;-81
2022/04/13 02:49:41;;;;;;;1.17;1.00;;;;;;;;;;20266875;29;20040;-82
2022/04/13 02:59:46;;;;;;;1.40;1.23;;;;;;;;;;20266733;29;20062;-82
2022/04/13 03:09:47;;;;;;;1.30;1.02;;;;;;;;;;20235458;29;20434;-81
2022/04/13 03:19:49;;;;;;;1.35;1.00;;;;;;;;;;20266465;29;20048;-82
2022/04/13 03:29:51;;;;;;;1.17;1.08;;;;;;;;;;20247502;29;20104;-82
2022/04/13 03:39:53;;;;;;;1.30;1.05;;;;;;;;;;20273455;29;20044;-82
2022/04/13 03:49:55;;;;;;;1.40;1.30;;;;;;;;;;20277911;29;20468;-81
2022/04/13 03:59:57;;;;;;;1.80;1.20;;;;;;;;;;20260942;29;20128;-81
2022/04/13 04:09:59;;;;;;;1.23;1.13;;;;;;;;;;20259676;29;20059;-81
2022/04/13 04:20:01;;;;;;;1.17;0.95;;;;;;;;;;20275036;29;20505;-81
2022/04/13 04:30:03;;;;;;;1.65;1.15;;;;;;;;;;20258917;29;20061;-81
2022/04/13 04:40:05;;;;;;;1.80;1.30;;;;;;;;;;20273905;29;20063;-80
2022/04/13 04:50:07;;;;;;;1.38;1.20;;;;;;;;;;20255409;29;20049;-80
2022/04/13 05:00:11;;;;;;;1.55;1.20;;;;;;;;;;20268804;29;20052;-82
2022/04/13 05:10:12;;;;;;;1.73;1.00;;;;;;;;;;20265914;29;20411;-82
2022/04/13 05:20:14;;;;;;;1.95;1.40;;;;;;;;;;20266204;29;20056;-82
2022/04/13 05:30:16;;;;;;;1.20;1.10;;;;;;;;;;20266890;29;20044;-83
2022/04/13 05:40:17;;;;;;;1.35;1.25;;;;;;;;;;20269911;29;20048;-84
2022/04/13 05:50:19;;;;;;;1.20;1.10;;;;;;;;;;20269461;29;20049;-87
2022/04/13 06:00:21;;;;;;;1.52;1.20;;;;;;;;;;20252419;29;20056;-84
2022/04/13 06:10:23;;;;;;;1.35;1.10;;;;;;;;;;20271199;29;20048;-89
2022/04/13 06:20:25;;;;;;;1.00;0.90;;;;;;;;;;20250610;29;20566;-89
2022/04/13 06:30:27;;;;;;;3.03;1.33;;;;;;;;;;20266529;29;20566;-86
2022/04/13 06:40:28;;;;;;;4.95;2.00;;;;;;;;;;20234451;29;20048;-86
2022/04/13 06:50:31;;;;;;;2.40;1.35;;;;;;;;;;20249067;29;20068;-87
2022/04/13 07:00:34;;;;;;;4.20;1.75;;;;;;;;;;20264627;29;20053;-84
2022/04/13 07:10:36;;;;;;;3.63;1.50;;;;;;;;;;20254514;29;20059;-84
2022/04/13 07:20:43;;;;;;;4.70;2.13;;;;;;;;;;20257271;29;20054;-87
2022/04/13 07:30:45;;;;;;;4.22;1.42;;;;;;;;;;20287035;29;20420;-87
2022/04/13 07:40:46;;;;;;;3.15;1.50;;;;;;;;;;20270474;29;20080;-87
2022/04/13 07:50:51;;;;;;;3.58;1.55;;;;;;;;;;20271698;29;20067;-87
2022/04/13 08:00:52;;;;;;;2.08;1.42;;;;;;;;;;20268655;29;20060;-88
2022/04/13 08:10:54;;;;;;;2.15;1.83;;;;;;;;;;20269990;29;20061;-87
2022/04/13 08:20:56;;;;;;;2.10;1.25;;;;;;;;;;20284824;29;20558;-87
2022/04/13 08:30:58;;;;;;;2.88;1.40;;;;;;;;;;20242658;29;20147;-86
2022/04/13 08:41:01;;;;;;;3.15;1.45;;;;;;;;;;20255395;29;20140;-84
2022/04/13 08:51:04;;;;;;;4.57;1.60;;;;;;;;;;20237829;29;20128;-86
2022/04/13 09:01:13;;;;;;;3.63;1.57;;;;;;;;;;20254066;29;20147;-86
2022/04/13 09:11:22;;;;;;;2.80;1.70;;;;;;;;;;20254735;29;20052;-87
2022/04/13 09:21:25;;;;;;;3.80;1.70;;;;;;;;;;20239558;29;20135;-87
2022/04/13 09:31:30;;;;;;;2.97;1.65;;;;;;;;;;20270738;29;20511;-88
2022/04/13 09:41:33;;;;;;;4.28;1.88;;;;;;;;;;20253242;29;20120;-87
2022/04/13 09:51:38;;;;;;;2.97;1.60;;;;;;;;;;20252517;29;20057;-88
2022/04/13 10:01:40;;;;;;;2.30;1.42;;;;;;;;;;20268333;29;20056;-86
2022/04/13 10:11:58;;;;;;;3.90;2.17;;;;;;;;;;20251251;29;20057;-87
2022/04/13 10:22:00;;;;;;;2.35;1.60;;;;;;;;;;20235058;29;20057;-84
2022/04/13 10:32:03;;;;;;;2.92;1.20;;;;;;;;;;20249762;29;20080;-84
2022/04/13 10:42:06;;;;;;;2.33;1.27;;;;;;;;;;20249438;29;20049;-88
2022/04/13 10:52:14;;;;;;;2.05;1.10;;;;;;;;;;20248425;29;20052;-89
2022/04/13 11:02:35;;;;;;;2.23;1.30;;;;;;;;;;20248158;29;20060;-87
2022/04/13 11:12:37;;;;;;;2.28;1.20;;;;;;;;;;20254769;29;20132;-87
2022/04/13 11:22:39;;;;;;;2.50;1.30;;;;;;;;;;20247803;29;20048;-90
2022/04/13 11:32:42;;;;;;;1.73;1.20;;;;;;;;;;20247565;29;20049;-89
2022/04/13 11:42:47;;;;;;;3.60;1.38;;;;;;;;;;20263699;29;20148;-92
2022/04/13 11:52:53;;;;;;;1.87;1.10;;;;;;;;;;20263481;29;20060;-91
2022/04/13 12:02:55;;;;;;;1.27;0.95;;;;;;;;;;20275773;29;20057;-90
2022/04/13 12:13:03;;;;;;;1.23;0.90;;;;;;;;;;20260610;29;20052;-89
2022/04/13 12:23:17;;;;;;;1.17;0.80;;;;;;;;;;20276301;29;20502;-90
2022/04/13 12:33:23;;;;;;;2.30;1.00;;;;;;;;;;20275705;29;20084;-91
2022/04/13 12:43:25;;;;;;;;;;;;;;;;;;20244298;29;20132;-85
2022/04/13 12:53:27;;;;;;;1.25;0.82;;;;;;;;;;20258526;29;20380;-89
2022/04/13 13:03:33;;;;;;;1.10;1.00;;;;;;;;;;20274304;29;20418;-91
2022/04/13 13:13:36;;;;;;;1.70;0.85;;;;;;;;;;20255600;29;20079;-89
2022/04/13 13:23:47;;;;;;;1.08;0.80;;;;;;;;;;20254995;29;20136;-90
2022/04/13 13:33:55;;;;;;;1.60;0.88;;;;;;;;;;20254811;29;20646;-90
2022/04/13 13:43:57;;;;;;;2.13;1.02;;;;;;;;;;20271755;29;20052;-92
2022/04/13 13:54:04;;;;;;;4.20;1.27;;;;;;;;;;20271288;29;20048;-93
2022/04/13 14:04:05;;;;;;;5.82;1.55;;;;;;;;;;20271130;29;20411;-91
2022/04/13 14:14:07;;;;;;;9.60;1.88;;;;;;;;;;20268963;29;20087;-91
2022/04/13 14:24:09;;;;;;;8.90;1.75;;;;;;;;;;20252157;29;20052;-92
2022/04/13 14:34:11;;;;;;;7.63;1.90;;;;;;;;;;20273029;29;20055;-90
2022/04/13 14:44:12;;;;;;;4.15;1.80;;;;;;;;;;20260293;29;20057;-92
2022/04/13 14:54:14;;;;;;;4.97;1.70;;;;;;;;;;20266247;29;20055;-91
2022/04/13 15:04:16;;;;;;;12.75;1.95;;;;;;;;;;20249907;29;20057;-89
2022/04/13 15:14:18;;;;;;;4.95;1.33;;;;;;;;;;20264987;29;20049;-90
2022/04/13 15:24:20;;;;;;;5.28;1.80;;;;;;;;;;20261354;29;20092;-90
2022/04/13 15:34:22;;;;;;;3.63;1.20;;;;;;;;;;20272397;29;20052;-89
2022/04/13 15:44:24;;;;;;;4.88;1.77;;;;;;;;;;20279457;29;20056;-89
2022/04/13 15:54:26;;;;;;;1.63;1.00;;;;;;;;;;20261955;29;20052;-89
2022/04/13 16:04:27;;;;;;;5.20;1.20;;;;;;;;;;20260645;29;20076;-89
2022/04/13 16:14:32;;;;;;;4.90;1.30;;;;;;;;;;20260107;29;20048;-89
2022/04/13 16:24:34;;;;;;;3.10;1.38;;;;;;;;;;20244451;29;20112;-81
2022/04/13 16:34:36;;;;;;;3.78;1.25;;;;;;;;;;20275624;29;20076;-84
2022/04/13 16:44:38;;;;;;;1.55;0.80;;;;;;;;;;20264730;29;20053;-84
2022/04/13 16:54:42;;;;;;;2.90;1.05;;;;;;;;;;20231142;29;20132;-83
2022/04/13 17:04:44;;;;;;;4.75;1.02;;;;;;;;;;20271823;29;20491;-84
2022/04/13 17:14:46;;;;;;;3.38;1.00;;;;;;;;;;20270037;29;20048;-84
2022/04/13 17:24:48;;;;;;;4.15;1.02;;;;;;;;;;20254124;29;20057;-84
2022/04/13 17:34:49;;;;;;;1.65;0.80;;;;;;;;;;20253763;29;20139;-84
2022/04/13 17:44:51;;;;;;;1.60;1.00;;;;;;;;;;20268829;29;20522;-82
2022/04/13 17:54:53;;;;;;;2.00;0.98;;;;;;;;;;20267637;29;20575;-82
2022/04/13 18:04:55;;;;;;;1.75;0.98;;;;;;;;;;20250691;29;20086;-82
2022/04/13 18:14:57;;;;;;;2.08;1.00;;;;;;;;;;20227074;29;20534;-82
2022/04/13 18:24:59;;;;;;;3.03;1.05;;;;;;;;;;20235492;29;20052;-84
2022/04/13 18:35:01;;;;;;;2.50;1.00;;;;;;;;;;20248614;29;20061;-83
2022/04/13 18:45:05;;;;;;;1.35;1.02;;;;;;;;;;20232498;29;20053;-84
2022/04/13 18:55:07;;;;;;;2.05;1.40;;;;;;;;;;20244714;29;20044;-81
2022/04/13 19:05:09;;;;;;;3.00;1.00;;;;;;;;;;20225067;29;20080;-82
2022/04/13 19:15:11;;;;;;;1.52;0.75;;;;;;;;;;20246154;29;20088;-82
2022/04/13 19:25:13;;;;;;;1.65;0.90;;;;;;;;;;20246652;29;20056;-83
2022/04/13 19:35:15;;;;;;;2.80;0.88;;;;;;;;;;20263436;29;20068;-83
2022/04/13 19:45:17;;;;;;;2.05;0.75;;;;;;;;;;20247031;29;20047;-82
2022/04/13 19:55:19;;;;;;;2.80;0.93;;;;;;;;;;20262762;29;20052;-83
2022/04/13 20:05:21;;;;;;;1.63;0.73;;;;;;;;;;20262767;29;20067;-82
2022/04/13 20:15:23;;;;;;;1.75;0.90;;;;;;;;;;20262648;29;20583;-83
2022/04/13 20:25:25;;;;;;;2.40;0.90;;;;;;;;;;20259491;29;20092;-83
2022/04/13 20:35:27;;;;;;;1.90;0.77;;;;;;;;;;20277983;29;20053;-82
2022/04/13 20:45:32;;;;;;;1.80;0.90;;;;;;;;;;20259968;29;20406;-86
2022/04/13 20:55:34;;;;;;;1.23;0.87;;;;;;;;;;20278191;29;20052;-85
2022/04/13 21:05:36;;;;;;;1.55;0.80;;;;;;;;;;20279330;29;20069;-85
2022/04/13 21:15:38;;;;;;;0.88;0.70;;;;;;;;;;20279074;29;20044;-85
2022/04/13 21:25:42;;;;;;;1.15;0.73;;;;;;;;;;20278269;29;20164;-84
2022/04/13 21:35:44;;;;;;;1.80;0.73;;;;;;;;;;20277017;29;20055;-85
2022/04/13 21:45:46;;;;;;;1.80;0.80;;;;;;;;;;20277327;29;20048;-84
2022/04/13 21:55:48;;;;;;;1.58;0.80;;;;;;;;;;20243885;29;20047;-85
2022/04/13 22:05:51;;;;;;;1.77;1.00;;;;;;;;;;20274670;29;20056;-83
2022/04/13 22:15:53;;;;;;;1.38;0.73;;;;;;;;;;20275082;29;20083;-83
2022/04/13 22:25:55;;;;;;;1.58;0.90;;;;;;;;;;20256653;29;20108;-83
2022/04/13 22:35:57;;;;;;;1.10;0.80;;;;;;;;;;20273013;29;20041;-85
2022/04/13 22:45:58;;;;;;;1.75;1.00;;;;;;;;;;20272798;29;20085;-85
2022/04/13 22:56:00;;;;;;;2.17;0.95;;;;;;;;;;20271976;29;20064;-85
2022/04/13 23:06:02;;;;;;;2.78;0.88;;;;;;;;;;20254880;29;20414;-85
2022/04/13 23:16:04;;;;;;;1.65;1.00;;;;;;;;;;20254153;29;20052;-86
2022/04/13 23:26:07;;;;;;;1.38;0.80;;;;;;;;;;20239220;29;20152;-85
2022/04/13 23:36:09;;;;;;;1.70;1.10;;;;;;;;;;20270076;29;20427;-85
2022/04/13 23:46:10;;;;;;;1.50;0.90;;;;;;;;;;20253846;29;20518;-84
2022/04/13 23:56:12;;;;;;;3.80;1.55;;;;;;;;;;20262079;29;20056;-85
